createdAt,value
2023-12-09T00:00:44.352Z,2.55
2023-12-09T00:03:29.390Z,2.55
2023-12-09T00:06:14.732Z,2.58
2023-12-09T00:08:59.947Z,2.56
2023-12-09T00:11:45.176Z,2.62
2023-12-09T00:14:30.267Z,2.66
2023-12-09T00:17:14.936Z,2.64
2023-12-09T00:19:59.773Z,2.52
2023-12-09T00:22:44.641Z,2.53
2023-12-09T00:25:29.549Z,2.62
2023-12-09T00:28:14.133Z,2.57
2023-12-09T00:30:59.134Z,2.58
2023-12-09T00:33:44.120Z,2.57
2023-12-09T00:36:29.176Z,2.59
2023-12-09T00:39:14.397Z,2.59
2023-12-09T00:41:59.594Z,2.57
2023-12-09T00:44:44.631Z,2.59
2023-12-09T00:47:29.485Z,2.59
2023-12-09T00:50:14.335Z,2.59
2023-12-09T00:52:59.382Z,2.61
2023-12-09T00:55:44.587Z,2.60
2023-12-09T00:58:30.053Z,2.61
2023-12-09T01:01:15.382Z,2.62
2023-12-09T01:04:00.989Z,2.59
2023-12-09T01:06:46.125Z,2.62
2023-12-09T01:09:31.242Z,2.64
2023-12-09T01:12:16.358Z,2.63
2023-12-09T01:15:01.029Z,2.63
2023-12-09T01:17:46.504Z,2.65
2023-12-09T01:20:31.368Z,2.58
2023-12-09T01:23:16.161Z,2.36
2023-12-09T01:26:00.881Z,2.22
2023-12-09T01:28:46.036Z,2.31
2023-12-09T01:31:30.756Z,2.45
2023-12-09T01:34:15.992Z,2.58
2023-12-09T01:37:01.183Z,2.60
2023-12-09T01:39:45.910Z,2.62
2023-12-09T01:42:31.257Z,2.65
2023-12-09T01:45:16.243Z,2.64
2023-12-09T01:48:01.084Z,2.63
2023-12-09T01:50:46.155Z,2.62
2023-12-09T01:53:31.430Z,2.66
2023-12-09T01:56:16.206Z,2.71
2023-12-09T01:59:01.070Z,2.72
2023-12-09T02:01:46.092Z,2.74
2023-12-09T02:04:31.073Z,2.72
2023-12-09T02:07:15.867Z,2.51
2023-12-09T02:10:00.652Z,2.58
2023-12-09T02:12:45.680Z,2.59
2023-12-09T02:15:30.795Z,2.53
2023-12-09T02:18:20.181Z,2.54
2023-12-09T02:21:05.361Z,2.52
2023-12-09T02:23:50.522Z,2.52
2023-12-09T02:26:41.137Z,2.56
2023-12-09T02:29:27.511Z,2.30
2023-12-09T02:32:12.885Z,1.91
2023-12-09T02:34:58.259Z,2.15
2023-12-09T02:37:43.359Z,2.37
2023-12-09T02:40:28.470Z,2.49
2023-12-09T02:43:17.372Z,2.49
2023-12-09T02:46:02.378Z,2.47
2023-12-09T02:48:47.634Z,2.48
2023-12-09T02:51:32.806Z,2.48
2023-12-09T02:54:17.993Z,2.46
2023-12-09T02:57:03.275Z,2.37
2023-12-09T02:59:48.524Z,2.30
2023-12-09T03:02:33.751Z,2.33
2023-12-09T03:05:18.646Z,2.32
2023-12-09T03:08:03.238Z,2.25
2023-12-09T03:10:48.576Z,1.94
2023-12-09T03:13:33.201Z,2.01
2023-12-09T03:16:18.191Z,2.18
2023-12-09T03:19:03.040Z,2.17
2023-12-09T03:21:48.168Z,2.23
2023-12-09T03:24:33.305Z,2.28
2023-12-09T03:27:18.398Z,2.31
2023-12-09T03:30:03.473Z,2.32
2023-12-09T03:32:48.370Z,2.37
2023-12-09T03:35:33.147Z,2.38
2023-12-09T03:38:18.125Z,2.39
2023-12-09T03:41:03.116Z,2.42
2023-12-09T03:43:47.960Z,2.45
2023-12-09T03:46:33.077Z,2.40
2023-12-09T03:49:18.069Z,2.44
2023-12-09T03:52:03.200Z,2.39
2023-12-09T03:54:47.951Z,2.34
2023-12-09T03:57:32.840Z,2.38
2023-12-09T04:00:18.061Z,1.94
2023-12-09T04:03:02.942Z,1.94
2023-12-09T04:05:48.191Z,2.28
2023-12-09T04:08:33.368Z,2.35
2023-12-09T04:11:18.380Z,2.34
2023-12-09T04:14:03.238Z,2.33
2023-12-09T04:16:47.949Z,2.36
2023-12-09T04:19:33.368Z,2.32
2023-12-09T04:22:18.513Z,2.26
2023-12-09T04:25:03.668Z,2.33
2023-12-09T04:27:48.752Z,2.38
2023-12-09T04:30:33.481Z,2.38
2023-12-09T04:33:18.463Z,2.42
2023-12-09T04:36:03.477Z,2.45
2023-12-09T04:38:48.485Z,2.45
2023-12-09T04:41:33.493Z,2.36
2023-12-09T04:44:18.417Z,2.34
2023-12-09T04:47:06.180Z,2.39
2023-12-09T04:49:52.011Z,2.33
2023-12-09T04:52:36.927Z,2.35
2023-12-09T04:55:21.936Z,2.32
2023-12-09T04:58:06.747Z,2.30
2023-12-09T05:00:51.507Z,2.24
2023-12-09T05:03:36.289Z,2.29
2023-12-09T05:06:21.143Z,2.33
2023-12-09T05:09:06.047Z,2.31
2023-12-09T05:11:50.811Z,2.32
2023-12-09T05:14:35.450Z,2.29
2023-12-09T05:17:20.287Z,2.31
2023-12-09T05:20:04.936Z,2.26
2023-12-09T05:22:49.643Z,2.27
2023-12-09T05:25:34.638Z,2.32
2023-12-09T05:28:21.393Z,2.37
2023-12-09T05:31:06.462Z,2.38
2023-12-09T05:33:51.324Z,2.33
2023-12-09T05:36:36.332Z,2.35
2023-12-09T05:39:21.638Z,2.36
2023-12-09T05:42:06.913Z,2.47
2023-12-09T05:44:52.114Z,2.50
2023-12-09T05:47:37.229Z,2.53
2023-12-09T05:50:21.977Z,2.57
2023-12-09T05:53:06.709Z,2.55
2023-12-09T05:55:51.518Z,2.49
2023-12-09T05:58:36.193Z,2.54
2023-12-09T06:01:21.337Z,2.52
2023-12-09T06:04:06.301Z,2.53
2023-12-09T06:06:51.294Z,2.57
2023-12-09T06:09:36.224Z,2.58
2023-12-09T06:12:21.564Z,2.56
2023-12-09T06:15:06.687Z,2.59
2023-12-09T06:17:51.797Z,2.58
2023-12-09T06:20:36.977Z,2.55
2023-12-09T06:23:21.949Z,2.54
2023-12-09T06:26:06.683Z,2.54
2023-12-09T06:28:51.405Z,2.50
2023-12-09T06:31:36.481Z,2.50
2023-12-09T06:34:21.512Z,2.50
2023-12-09T06:37:06.364Z,2.47
2023-12-09T06:39:51.431Z,2.47
2023-12-09T06:42:36.092Z,2.45
2023-12-09T06:45:21.306Z,2.39
2023-12-09T06:48:06.087Z,2.38
2023-12-09T06:50:50.870Z,2.46
2023-12-09T06:53:35.623Z,2.40
2023-12-09T06:56:20.672Z,2.40
2023-12-09T06:59:05.700Z,2.28
2023-12-09T07:01:50.745Z,2.34
2023-12-09T07:04:35.845Z,2.32
2023-12-09T07:07:22.446Z,2.31
2023-12-09T07:10:07.873Z,2.31
2023-12-09T07:12:52.656Z,2.33
2023-12-09T07:15:37.633Z,2.43
2023-12-09T07:18:22.355Z,2.42
2023-12-09T07:21:07.169Z,2.34
2023-12-09T07:23:52.301Z,2.27
2023-12-09T07:26:37.082Z,2.34
2023-12-09T07:29:22.145Z,2.38
2023-12-09T07:32:07.108Z,2.37
2023-12-09T07:34:53.722Z,2.37
2023-12-09T07:37:42.101Z,2.34
2023-12-09T07:40:27.639Z,2.32
2023-12-09T07:43:12.602Z,2.31
2023-12-09T07:45:57.491Z,2.36
2023-12-09T07:48:42.646Z,2.32
2023-12-09T07:51:27.590Z,2.35
2023-12-09T07:54:12.419Z,2.40
2023-12-09T07:56:57.487Z,2.42
2023-12-09T07:59:42.459Z,2.38
2023-12-09T08:02:27.807Z,2.28
2023-12-09T08:05:12.888Z,2.33
2023-12-09T08:07:57.701Z,2.20
2023-12-09T08:10:42.447Z,2.25
2023-12-09T08:13:27.149Z,2.39
2023-12-09T08:16:12.142Z,2.42
2023-12-09T08:18:57.094Z,2.46
2023-12-09T08:21:42.122Z,2.52
2023-12-09T08:24:28.233Z,2.55
2023-12-09T08:27:13.453Z,2.68
2023-12-09T08:29:58.184Z,2.80
2023-12-09T08:32:43.027Z,2.83
2023-12-09T08:35:28.367Z,2.88
2023-12-09T08:38:13.255Z,2.98
2023-12-09T08:40:58.432Z,3.09
2023-12-09T08:43:43.583Z,3.07
2023-12-09T08:46:28.336Z,3.05
2023-12-09T08:49:13.426Z,3.05
2023-12-09T08:51:58.603Z,3.08
2023-12-09T08:54:43.464Z,3.16
2023-12-09T08:57:28.289Z,3.28
2023-12-09T09:00:13.440Z,3.35
2023-12-09T09:02:58.512Z,3.42
2023-12-09T09:05:43.301Z,3.40
2023-12-09T09:08:27.931Z,3.42
2023-12-09T09:11:12.976Z,3.42
2023-12-09T09:13:57.635Z,3.40
2023-12-09T09:16:42.515Z,3.35
2023-12-09T09:19:27.693Z,3.37
2023-12-09T09:22:12.602Z,3.33
2023-12-09T09:24:57.586Z,3.35
2023-12-09T09:27:42.658Z,3.40
2023-12-09T09:30:28.026Z,3.38
2023-12-09T09:33:13.120Z,3.37
2023-12-09T09:35:58.019Z,3.37
2023-12-09T09:38:42.941Z,3.37
2023-12-09T09:41:28.118Z,3.36
2023-12-09T09:44:13.002Z,3.38
2023-12-09T09:46:57.558Z,3.39
2023-12-09T09:49:42.448Z,3.38
2023-12-09T09:52:27.525Z,3.38
2023-12-09T09:55:12.981Z,3.37
2023-12-09T09:57:57.875Z,3.38
2023-12-09T10:00:43.157Z,3.35
2023-12-09T10:03:28.182Z,3.34
2023-12-09T10:06:13.344Z,3.40
2023-12-09T10:08:58.293Z,3.43
2023-12-09T10:11:43.325Z,3.46
2023-12-09T10:14:28.159Z,3.47
2023-12-09T10:17:12.926Z,3.46
2023-12-09T10:19:57.921Z,3.53
2023-12-09T10:22:42.745Z,3.36
2023-12-09T10:25:27.645Z,3.35
2023-12-09T10:28:12.422Z,3.34
2023-12-09T10:30:57.307Z,3.33
2023-12-09T10:33:42.365Z,3.29
2023-12-09T10:36:27.097Z,3.21
2023-12-09T10:39:12.068Z,3.27
2023-12-09T10:41:56.855Z,3.24
2023-12-09T10:44:41.866Z,3.25
2023-12-09T10:47:26.613Z,3.27
2023-12-09T10:50:11.596Z,3.27
2023-12-09T10:52:56.322Z,3.30
2023-12-09T10:55:41.313Z,3.27
2023-12-09T10:58:26.465Z,3.35
2023-12-09T11:01:11.477Z,3.45
2023-12-09T11:03:56.546Z,3.46
2023-12-09T11:06:41.269Z,3.48
2023-12-09T11:09:26.292Z,3.39
2023-12-09T11:12:11.286Z,3.43
2023-12-09T11:14:56.334Z,3.40
2023-12-09T11:17:41.491Z,3.39
2023-12-09T11:20:26.671Z,3.40
2023-12-09T11:23:11.951Z,3.47
2023-12-09T11:25:56.688Z,3.47
2023-12-09T11:28:41.552Z,3.49
2023-12-09T11:31:26.424Z,3.46
2023-12-09T11:34:11.219Z,3.48
2023-12-09T11:36:56.177Z,3.48
2023-12-09T11:39:42.503Z,3.50
2023-12-09T11:42:27.481Z,3.54
2023-12-09T11:45:12.403Z,3.56
2023-12-09T11:47:58.311Z,3.59
2023-12-09T11:50:43.488Z,3.53
2023-12-09T11:53:29.913Z,3.56
2023-12-09T11:56:16.171Z,3.54
2023-12-09T11:59:00.917Z,3.51
2023-12-09T12:01:45.872Z,3.51
2023-12-09T12:04:30.957Z,3.50
2023-12-09T12:07:15.939Z,3.57
2023-12-09T12:10:01.086Z,3.58
2023-12-09T12:12:46.292Z,3.60
2023-12-09T12:15:31.543Z,3.63
2023-12-09T12:18:16.488Z,3.63
2023-12-09T12:21:01.600Z,3.60
2023-12-09T12:23:46.261Z,3.54
2023-12-09T12:26:32.568Z,3.31
2023-12-09T12:29:17.514Z,3.53
2023-12-09T12:32:02.246Z,3.53
2023-12-09T12:34:47.382Z,3.57
2023-12-09T12:37:32.208Z,3.51
2023-12-09T12:40:16.975Z,3.51
2023-12-09T12:43:01.720Z,3.54
2023-12-09T12:45:46.478Z,3.44
2023-12-09T12:48:31.401Z,3.36
2023-12-09T12:51:16.349Z,3.35
2023-12-09T12:54:01.058Z,3.42
2023-12-09T12:56:46.011Z,3.41
2023-12-09T12:59:30.820Z,3.31
2023-12-09T13:02:16.126Z,3.25
2023-12-09T13:05:00.878Z,3.20
2023-12-09T13:07:45.962Z,3.26
2023-12-09T13:10:30.726Z,3.22
2023-12-09T13:13:15.662Z,3.17
2023-12-09T13:16:00.640Z,3.10
2023-12-09T13:18:45.741Z,3.04
2023-12-09T13:21:30.891Z,2.97
2023-12-09T13:24:15.782Z,2.95
2023-12-09T13:27:00.385Z,3.01
2023-12-09T13:29:45.863Z,2.93
2023-12-09T13:32:30.857Z,3.03
2023-12-09T13:35:16.341Z,2.91
2023-12-09T13:38:03.504Z,2.97
2023-12-09T13:40:48.790Z,2.95
2023-12-09T13:43:33.943Z,2.95
2023-12-09T13:46:18.702Z,2.97
2023-12-09T13:49:03.954Z,2.94
2023-12-09T13:51:49.077Z,2.90
2023-12-09T13:54:33.809Z,2.91
2023-12-09T13:57:18.789Z,2.90
2023-12-09T14:00:03.673Z,2.90
2023-12-09T14:02:48.561Z,2.88
2023-12-09T14:05:33.493Z,2.91
2023-12-09T14:08:18.543Z,2.82
2023-12-09T14:11:03.555Z,2.37
2023-12-09T14:13:48.645Z,2.44
2023-12-09T14:16:33.474Z,2.59
2023-12-09T14:19:18.370Z,2.22
2023-12-09T14:22:03.395Z,2.33
2023-12-09T14:24:48.265Z,2.17
2023-12-09T14:27:33.163Z,1.96
2023-12-09T14:30:18.384Z,1.82
2023-12-09T14:33:03.819Z,2.17
2023-12-09T14:35:58.009Z,2.44
2023-12-09T14:38:43.065Z,2.46
2023-12-09T14:41:28.188Z,2.59
2023-12-09T14:44:13.674Z,2.39
2023-12-09T14:46:58.294Z,2.37
2023-12-09T14:49:43.348Z,2.66
2023-12-09T14:52:28.721Z,2.82
2023-12-09T14:55:13.483Z,2.79
2023-12-09T14:57:58.477Z,2.83
2023-12-09T15:00:43.234Z,2.90
2023-12-09T15:03:28.684Z,2.89
2023-12-09T15:06:13.433Z,2.85
2023-12-09T15:08:58.970Z,2.85
2023-12-09T15:11:43.607Z,2.88
2023-12-09T15:14:28.690Z,2.82
2023-12-09T15:17:13.436Z,2.83
2023-12-09T15:19:58.125Z,2.85
2023-12-09T15:22:42.942Z,2.80
2023-12-09T15:25:27.894Z,2.80
2023-12-09T15:28:13.040Z,2.68
2023-12-09T15:31:04.125Z,2.75
2023-12-09T15:33:49.388Z,2.73
2023-12-09T15:36:34.549Z,2.66
2023-12-09T15:39:19.237Z,2.64
2023-12-09T15:42:04.341Z,2.62
2023-12-09T15:44:49.131Z,2.63
2023-12-09T15:47:34.055Z,2.45
2023-12-09T15:50:18.977Z,2.48
2023-12-09T15:53:03.696Z,2.56
2023-12-09T15:55:48.887Z,2.53
2023-12-09T15:58:33.808Z,2.52
2023-12-09T16:01:18.852Z,2.42
2023-12-09T16:04:04.007Z,2.45
2023-12-09T16:06:48.727Z,2.39
2023-12-09T16:09:36.330Z,2.43
2023-12-09T16:12:23.491Z,2.43
2023-12-09T16:15:08.601Z,2.42
2023-12-09T16:17:53.732Z,2.36
2023-12-09T16:20:38.629Z,2.40
2023-12-09T16:23:23.573Z,2.37
2023-12-09T16:26:08.951Z,2.30
2023-12-09T16:28:53.611Z,2.26
2023-12-09T16:31:38.501Z,2.17
2023-12-09T16:34:23.287Z,2.20
2023-12-09T16:37:08.935Z,1.96
2023-12-09T16:39:53.926Z,2.08
2023-12-09T16:42:38.940Z,2.20
2023-12-09T16:45:23.739Z,2.24
2023-12-09T16:48:08.951Z,2.29
2023-12-09T16:50:54.072Z,2.30
2023-12-09T16:53:39.184Z,2.30
2023-12-09T16:56:23.818Z,2.31
2023-12-09T16:59:10.822Z,2.31
2023-12-09T17:01:55.752Z,2.29
2023-12-09T17:04:40.813Z,2.18
2023-12-09T17:07:25.978Z,2.16
2023-12-09T17:10:11.845Z,2.14
2023-12-09T17:12:56.929Z,2.10
2023-12-09T17:15:41.634Z,2.03
2023-12-09T17:18:26.971Z,1.68
2023-12-09T17:21:12.031Z,1.93
2023-12-09T17:23:56.927Z,2.03
2023-12-09T17:26:42.113Z,2.02
2023-12-09T17:29:26.778Z,2.07
2023-12-09T17:32:11.524Z,2.04
2023-12-09T17:34:56.149Z,2.11
2023-12-09T17:37:41.317Z,2.17
2023-12-09T17:40:26.295Z,2.10
2023-12-09T17:43:11.368Z,2.21
2023-12-09T17:45:56.596Z,2.26
2023-12-09T17:48:41.827Z,1.96
2023-12-09T17:51:27.184Z,1.99
2023-12-09T17:54:12.143Z,1.99
2023-12-09T17:56:57.104Z,1.93
2023-12-09T17:59:42.040Z,1.84
2023-12-09T18:02:27.386Z,1.89
2023-12-09T18:05:12.653Z,1.93
2023-12-09T18:07:57.554Z,1.96
2023-12-09T18:10:42.445Z,2.03
2023-12-09T18:13:27.086Z,2.10
2023-12-09T18:16:12.088Z,2.13
2023-12-09T18:18:57.255Z,2.18
2023-12-09T18:21:42.096Z,2.17
2023-12-09T18:24:26.942Z,2.15
2023-12-09T18:27:12.158Z,2.20
2023-12-09T18:29:57.036Z,2.21
2023-12-09T18:32:42.149Z,2.23
2023-12-09T18:35:27.171Z,2.17
2023-12-09T18:38:12.102Z,2.13
2023-12-09T18:40:57.095Z,2.03
2023-12-09T18:43:41.770Z,1.69
2023-12-09T18:46:26.725Z,1.72
2023-12-09T18:49:11.558Z,1.76
2023-12-09T18:51:56.577Z,1.71
2023-12-09T18:54:41.477Z,1.92
2023-12-09T18:57:26.919Z,1.55
2023-12-09T19:00:11.807Z,1.94
2023-12-09T19:02:56.638Z,2.04
2023-12-09T19:05:41.651Z,2.07
2023-12-09T19:08:27.498Z,2.06
2023-12-09T19:11:12.550Z,2.15
2023-12-09T19:13:57.549Z,2.13
2023-12-09T19:16:42.236Z,2.03
2023-12-09T19:19:27.921Z,1.93
2023-12-09T19:22:12.660Z,1.97
2023-12-09T19:24:57.684Z,1.83
2023-12-09T19:27:42.722Z,1.78
2023-12-09T19:30:27.500Z,1.93
2023-12-09T19:33:12.540Z,2.04
2023-12-09T19:35:57.665Z,1.87
2023-12-09T19:38:42.839Z,2.14
2023-12-09T19:41:27.693Z,2.12
2023-12-09T19:44:12.595Z,2.08
2023-12-09T19:46:57.439Z,2.04
2023-12-09T19:49:42.324Z,1.90
2023-12-09T19:52:27.642Z,1.95
2023-12-09T19:55:12.858Z,1.90
2023-12-09T19:57:57.795Z,1.73
2023-12-09T20:00:44.798Z,1.83
2023-12-09T20:03:30.496Z,1.79
2023-12-09T20:06:15.270Z,1.85
2023-12-09T20:09:00.363Z,1.89
2023-12-09T20:11:45.433Z,1.53
2023-12-09T20:14:30.370Z,1.78
2023-12-09T20:17:15.371Z,1.94
2023-12-09T20:20:00.471Z,1.92
2023-12-09T20:22:45.264Z,1.97
2023-12-09T20:25:29.867Z,2.11
2023-12-09T20:28:14.956Z,2.02
2023-12-09T20:30:59.995Z,1.91
2023-12-09T20:33:45.069Z,1.98
2023-12-09T20:36:30.107Z,1.85
2023-12-09T20:39:15.150Z,1.85
2023-12-09T20:42:00.261Z,1.32
2023-12-09T20:44:45.236Z,1.60
2023-12-09T20:47:30.384Z,1.48
2023-12-09T20:50:15.429Z,1.70
2023-12-09T20:53:00.397Z,1.40
2023-12-09T20:55:46.336Z,1.64
2023-12-09T20:58:31.380Z,1.43
2023-12-09T21:01:16.702Z,1.40
2023-12-09T21:04:01.681Z,1.55
2023-12-09T21:06:46.824Z,1.70
2023-12-09T21:09:31.822Z,1.62
2023-12-09T21:12:16.883Z,1.55
2023-12-09T21:15:01.803Z,1.35
2023-12-09T21:17:46.788Z,1.77
2023-12-09T21:20:31.706Z,1.87
2023-12-09T21:23:16.698Z,1.80
2023-12-09T21:26:01.702Z,1.95
2023-12-09T21:28:46.741Z,1.71
2023-12-09T21:31:31.716Z,1.82
2023-12-09T21:34:18.348Z,1.61
2023-12-09T21:37:03.750Z,1.81
2023-12-09T21:39:48.399Z,1.46
2023-12-09T21:42:33.383Z,1.99
2023-12-09T21:45:18.213Z,2.16
2023-12-09T21:48:03.306Z,2.18
2023-12-09T21:50:48.354Z,2.12
2023-12-09T21:53:33.299Z,2.07
2023-12-09T21:56:18.556Z,2.24
2023-12-09T21:59:03.750Z,2.22
2023-12-09T22:01:51.296Z,2.21
2023-12-09T22:04:36.556Z,2.36
2023-12-09T22:07:21.499Z,2.31
2023-12-09T22:10:06.406Z,2.46
2023-12-09T22:12:51.468Z,2.57
2023-12-09T22:15:36.176Z,2.55
2023-12-09T22:18:21.350Z,2.57
2023-12-09T22:21:06.105Z,2.54
2023-12-09T22:23:51.154Z,2.51
2023-12-09T22:26:35.855Z,2.33
2023-12-09T22:29:20.799Z,2.32
2023-12-09T22:32:05.500Z,2.22
2023-12-09T22:34:50.350Z,2.28
2023-12-09T22:37:35.147Z,2.19
2023-12-09T22:40:20.209Z,1.32
2023-12-09T22:43:05.024Z,1.93
2023-12-09T22:45:50.220Z,2.21
2023-12-09T22:48:35.771Z,2.15
2023-12-09T22:51:20.701Z,2.14
2023-12-09T22:54:05.672Z,2.13
2023-12-09T22:56:50.513Z,2.13
2023-12-09T22:59:35.453Z,2.47
2023-12-09T23:02:20.173Z,2.66
2023-12-09T23:05:05.189Z,2.79
2023-12-09T23:07:50.009Z,2.79
2023-12-09T23:10:35.023Z,2.91
2023-12-09T23:13:20.100Z,2.87
2023-12-09T23:16:04.834Z,2.87
2023-12-09T23:18:49.990Z,2.74
2023-12-09T23:21:35.395Z,2.93
2023-12-09T23:24:20.601Z,3.02
2023-12-09T23:27:05.788Z,3.07
2023-12-09T23:29:51.123Z,3.22
2023-12-09T23:32:36.666Z,3.18
2023-12-09T23:35:23.361Z,3.20
2023-12-09T23:38:08.154Z,3.16
2023-12-09T23:40:52.929Z,3.26
2023-12-09T23:43:37.928Z,2.72
2023-12-09T23:46:22.506Z,2.77
2023-12-09T23:49:07.525Z,2.95
2023-12-09T23:51:52.688Z,2.77
2023-12-09T23:54:37.598Z,3.12
2023-12-09T23:57:22.660Z,3.42
